sensor_id;sensor_type;location;lat;lon;timestamp;pressure;altitude;pressure_sealevel;temperature;humidity
59289;BME280;45056;47.602;9.886;2024-01-25T00:00:04;94083.13;;;9.38;77.90
59289;BME280;45056;47.602;9.886;2024-01-25T00:02:33;94091.28;;;9.38;78.00
59289;BME280;45056;47.602;9.886;2024-01-25T00:05:01;94089.00;;;9.36;77.86
59289;BME280;45056;47.602;9.886;2024-01-25T00:07:29;94089.75;;;9.37;77.88
59289;BME280;45056;47.602;9.886;2024-01-25T00:09:57;94093.25;;;9.37;77.93
59289;BME280;45056;47.602;9.886;2024-01-25T00:12:26;94089.75;;;9.37;78.11
59289;BME280;45056;47.602;9.886;2024-01-25T00:14:54;94097.50;;;9.38;77.91
59289;BME280;45056;47.602;9.886;2024-01-25T00:17:23;94097.13;;;9.36;77.68
59289;BME280;45056;47.602;9.886;2024-01-25T00:19:51;94098.28;;;9.35;77.82
59289;BME280;45056;47.602;9.886;2024-01-25T00:22:19;94099.47;;;9.34;78.00
59289;BME280;45056;47.602;9.886;2024-01-25T00:24:47;94095.19;;;9.33;77.99
59289;BME280;45056;47.602;9.886;2024-01-25T00:27:15;94096.81;;;9.31;77.88
59289;BME280;45056;47.602;9.886;2024-01-25T00:29:43;94098.72;;;9.30;78.15
59289;BME280;45056;47.602;9.886;2024-01-25T00:32:11;94092.53;;;9.30;78.00
59289;BME280;45056;47.602;9.886;2024-01-25T00:34:41;94092.94;;;9.28;78.12
59289;BME280;45056;47.602;9.886;2024-01-25T00:37:10;94088.69;;;9.27;78.10
59289;BME280;45056;47.602;9.886;2024-01-25T00:39:38;94084.78;;;9.28;78.06
59289;BME280;45056;47.602;9.886;2024-01-25T00:42:07;94085.97;;;9.27;77.97
59289;BME280;45056;47.602;9.886;2024-01-25T00:44:38;94079.34;;;9.28;78.09
59289;BME280;45056;47.602;9.886;2024-01-25T00:47:08;94076.63;;;9.28;77.95
59289;BME280;45056;47.602;9.886;2024-01-25T00:49:37;94082.06;;;9.28;77.85
59289;BME280;45056;47.602;9.886;2024-01-25T00:52:08;94077.44;;;9.29;77.88
59289;BME280;45056;47.602;9.886;2024-01-25T00:54:37;94078.97;;;9.30;77.78
59289;BME280;45056;47.602;9.886;2024-01-25T00:57:07;94083.63;;;9.29;77.48
59289;BME280;45056;47.602;9.886;2024-01-25T00:59:36;94078.97;;;9.30;77.46
59289;BME280;45056;47.602;9.886;2024-01-25T01:02:04;94083.25;;;9.27;77.42
59289;BME280;45056;47.602;9.886;2024-01-25T01:04:36;94090.28;;;9.24;77.41
59289;BME280;45056;47.602;9.886;2024-01-25T01:07:07;94078.63;;;9.24;77.38
59289;BME280;45056;47.602;9.886;2024-01-25T01:09:36;94074.78;;;9.21;77.48
59289;BME280;45056;47.602;9.886;2024-01-25T01:12:04;94075.56;;;9.22;77.50
59289;BME280;45056;47.602;9.886;2024-01-25T01:14:32;94076.34;;;9.22;77.53
59289;BME280;45056;47.602;9.886;2024-01-25T01:17:01;94080.22;;;9.21;77.36
59289;BME280;45056;47.602;9.886;2024-01-25T01:19:29;94083.69;;;9.22;77.22
59289;BME280;45056;47.602;9.886;2024-01-25T01:21:57;94072.09;;;9.18;77.23
59289;BME280;45056;47.602;9.886;2024-01-25T01:24:26;94073.28;;;9.17;77.28
59289;BME280;45056;47.602;9.886;2024-01-25T01:26:54;94076.75;;;9.17;77.37
59289;BME280;45056;47.602;9.886;2024-01-25T01:29:22;94082.59;;;9.16;77.39
59289;BME280;45056;47.602;9.886;2024-01-25T01:31:50;94069.78;;;9.16;77.54
59289;BME280;45056;47.602;9.886;2024-01-25T01:34:18;94074.47;;;9.16;77.24
59289;BME280;45056;47.602;9.886;2024-01-25T01:36:46;94077.56;;;9.14;77.14
59289;BME280;45056;47.602;9.886;2024-01-25T01:39:14;94071.38;;;9.14;77.28
59289;BME280;45056;47.602;9.886;2024-01-25T01:41:46;94070.97;;;9.15;77.20
59289;BME280;45056;47.602;9.886;2024-01-25T01:44:15;94070.19;;;9.15;77.16
59289;BME280;45056;47.602;9.886;2024-01-25T01:46:43;94070.97;;;9.15;77.17
59289;BME280;45056;47.602;9.886;2024-01-25T01:49:13;94068.66;;;9.14;77.03
59289;BME280;45056;47.602;9.886;2024-01-25T01:51:42;94068.31;;;9.12;77.23
59289;BME280;45056;47.602;9.886;2024-01-25T01:54:11;94076.81;;;9.14;77.08
59289;BME280;45056;47.602;9.886;2024-01-25T01:56:39;94065.94;;;9.14;77.01
59289;BME280;45056;47.602;9.886;2024-01-25T01:59:10;94074.84;;;9.14;76.92
59289;BME280;45056;47.602;9.886;2024-01-25T02:01:39;94080.28;;;9.14;76.52
59289;BME280;45056;47.602;9.886;2024-01-25T02:04:07;94072.94;;;9.11;76.19
59289;BME280;45056;47.602;9.886;2024-01-25T02:06:35;94077.66;;;9.07;76.34
59289;BME280;45056;47.602;9.886;2024-01-25T02:09:04;94074.56;;;9.05;76.36
59289;BME280;45056;47.602;9.886;2024-01-25T02:11:32;94076.50;;;9.04;76.38
59289;BME280;45056;47.602;9.886;2024-01-25T02:14:00;94078.84;;;9.02;76.22
59289;BME280;45056;47.602;9.886;2024-01-25T02:16:29;94078.84;;;9.02;75.95
59289;BME280;45056;47.602;9.886;2024-01-25T02:18:58;94084.72;;;8.97;75.99
59289;BME280;45056;47.602;9.886;2024-01-25T02:21:26;94073.09;;;8.97;76.08
59289;BME280;45056;47.602;9.886;2024-01-25T02:23:55;94080.47;;;8.96;75.74
59289;BME280;45056;47.602;9.886;2024-01-25T02:26:23;94073.13;;;8.93;75.62
59289;BME280;45056;47.602;9.886;2024-01-25T02:28:55;94077.00;;;8.92;75.59
59289;BME280;45056;47.602;9.886;2024-01-25T02:31:23;94072.41;;;8.89;75.06
59289;BME280;45056;47.602;9.886;2024-01-25T02:33:51;94071.66;;;8.85;75.13
59289;BME280;45056;47.602;9.886;2024-01-25T02:36:22;94073.22;;;8.82;75.20
59289;BME280;45056;47.602;9.886;2024-01-25T02:38:50;94074.03;;;8.79;75.04
59289;BME280;45056;47.602;9.886;2024-01-25T02:41:19;94061.69;;;8.74;74.52
59289;BME280;45056;47.602;9.886;2024-01-25T02:43:47;94065.97;;;8.72;74.77
59289;BME280;45056;47.602;9.886;2024-01-25T02:46:15;94071.41;;;8.68;74.71
59289;BME280;45056;47.602;9.886;2024-01-25T02:48:43;94069.88;;;8.67;74.93
59289;BME280;45056;47.602;9.886;2024-01-25T02:51:12;94076.47;;;8.66;74.78
59289;BME280;45056;47.602;9.886;2024-01-25T02:53:41;94062.53;;;8.64;74.89
59289;BME280;45056;47.602;9.886;2024-01-25T02:56:09;94064.88;;;8.62;74.95
59289;BME280;45056;47.602;9.886;2024-01-25T02:58:38;94057.16;;;8.60;74.94
59289;BME280;45056;47.602;9.886;2024-01-25T03:01:06;94050.94;;;8.60;74.92
59289;BME280;45056;47.602;9.886;2024-01-25T03:03:34;94054.44;;;8.60;74.86
59289;BME280;45056;47.602;9.886;2024-01-25T03:06:02;94047.06;;;8.61;74.84
59289;BME280;45056;47.602;9.886;2024-01-25T03:08:30;94059.09;;;8.60;75.05
59289;BME280;45056;47.602;9.886;2024-01-25T03:10:58;94057.91;;;8.61;75.00
59289;BME280;45056;47.602;9.886;2024-01-25T03:13:26;94062.94;;;8.62;74.90
59289;BME280;45056;47.602;9.886;2024-01-25T03:15:56;94060.63;;;8.61;74.97
59289;BME280;45056;47.602;9.886;2024-01-25T03:18:23;94055.22;;;8.61;75.18
59289;BME280;45056;47.602;9.886;2024-01-25T03:20:51;94043.97;;;8.62;74.95
59289;BME280;45056;47.602;9.886;2024-01-25T03:23:19;94034.28;;;8.61;74.95
59289;BME280;45056;47.602;9.886;2024-01-25T03:25:47;94047.06;;;8.61;74.84
59289;BME280;45056;47.602;9.886;2024-01-25T03:28:15;94054.81;;;8.62;74.80
59289;BME280;45056;47.602;9.886;2024-01-25T03:30:45;94040.47;;;8.62;74.83
59289;BME280;45056;47.602;9.886;2024-01-25T03:33:14;94049.38;;;8.62;74.77
59289;BME280;45056;47.602;9.886;2024-01-25T03:35:42;94043.19;;;8.62;74.86
59289;BME280;45056;47.602;9.886;2024-01-25T03:38:10;94043.59;;;8.60;74.67
59289;BME280;45056;47.602;9.886;2024-01-25T03:40:40;94043.22;;;8.58;74.72
59289;BME280;45056;47.602;9.886;2024-01-25T03:43:08;94039.72;;;8.58;74.89
59289;BME280;45056;47.602;9.886;2024-01-25T03:45:36;94040.13;;;8.56;74.89
59289;BME280;45056;47.602;9.886;2024-01-25T03:48:04;94036.66;;;8.56;75.21
59289;BME280;45056;47.602;9.886;2024-01-25T03:50:34;94033.13;;;8.59;75.21
59289;BME280;45056;47.602;9.886;2024-01-25T03:53:02;94026.94;;;8.58;75.02
59289;BME280;45056;47.602;9.886;2024-01-25T03:55:30;94035.09;;;8.58;75.21
59289;BME280;45056;47.602;9.886;2024-01-25T03:57:57;94045.16;;;8.58;75.32
59289;BME280;45056;47.602;9.886;2024-01-25T04:00:25;94043.97;;;8.59;75.20
59289;BME280;45056;47.602;9.886;2024-01-25T04:02:53;94041.66;;;8.57;75.18
59289;BME280;45056;47.602;9.886;2024-01-25T04:05:22;94039.38;;;8.56;75.26
59289;BME280;45056;47.602;9.886;2024-01-25T04:07:51;94040.13;;;8.56;75.13
59289;BME280;45056;47.602;9.886;2024-01-25T04:10:19;94037.03;;;8.54;75.28
59289;BME280;45056;47.602;9.886;2024-01-25T04:12:47;94029.31;;;8.52;75.30
59289;BME280;45056;47.602;9.886;2024-01-25T04:15:15;94030.44;;;8.55;75.39
59289;BME280;45056;47.602;9.886;2024-01-25T04:17:43;94031.22;;;8.56;75.38
59289;BME280;45056;47.602;9.886;2024-01-25T04:20:11;94031.97;;;8.56;75.50
59289;BME280;45056;47.602;9.886;2024-01-25T04:22:39;94041.28;;;8.59;75.46
59289;BME280;45056;47.602;9.886;2024-01-25T04:25:09;94043.22;;;8.58;75.42
59289;BME280;45056;47.602;9.886;2024-01-25T04:27:37;94052.91;;;8.59;75.10
59289;BME280;45056;47.602;9.886;2024-01-25T04:30:07;94052.56;;;8.54;75.01
59289;BME280;45056;47.602;9.886;2024-01-25T04:32:35;94039.03;;;8.50;75.23
59289;BME280;45056;47.602;9.886;2024-01-25T04:35:04;94044.03;;;8.48;75.23
59289;BME280;45056;47.602;9.886;2024-01-25T04:37:32;94031.28;;;8.48;75.50
59289;BME280;45056;47.602;9.886;2024-01-25T04:40:00;94040.16;;;8.49;75.34
59289;BME280;45056;47.602;9.886;2024-01-25T04:42:29;94053.34;;;8.47;75.41
59289;BME280;45056;47.602;9.886;2024-01-25T04:44:57;94054.16;;;8.44;75.62
59289;BME280;45056;47.602;9.886;2024-01-25T04:47:25;94054.94;;;8.44;75.82
59289;BME280;45056;47.602;9.886;2024-01-25T04:49:53;94064.63;;;8.45;75.73
59289;BME280;45056;47.602;9.886;2024-01-25T04:52:21;94061.53;;;8.43;75.93
59289;BME280;45056;47.602;9.886;2024-01-25T04:54:49;94047.22;;;8.39;76.06
59289;BME280;45056;47.602;9.886;2024-01-25T04:57:17;94047.22;;;8.39;76.23
59289;BME280;45056;47.602;9.886;2024-01-25T04:59:46;94048.38;;;8.42;76.36
59289;BME280;45056;47.602;9.886;2024-01-25T05:02:16;94056.88;;;8.44;76.21
59289;BME280;45056;47.602;9.886;2024-01-25T05:04:44;94064.63;;;8.45;76.17
59289;BME280;45056;47.602;9.886;2024-01-25T05:07:12;94078.94;;;8.46;76.16
59289;BME280;45056;47.602;9.886;2024-01-25T05:09:40;94070.03;;;8.45;75.94
59289;BME280;45056;47.602;9.886;2024-01-25T05:12:08;94068.88;;;8.46;76.01
59289;BME280;45056;47.602;9.886;2024-01-25T05:14:36;94066.53;;;8.45;75.88
59289;BME280;45056;47.602;9.886;2024-01-25T05:17:05;94080.47;;;8.47;75.97
59289;BME280;45056;47.602;9.886;2024-01-25T05:19:33;94075.06;;;8.47;75.97
59289;BME280;45056;47.602;9.886;2024-01-25T05:22:01;94086.69;;;8.47;75.99
59289;BME280;45056;47.602;9.886;2024-01-25T05:24:32;94091.31;;;8.47;75.85
59289;BME280;45056;47.602;9.886;2024-01-25T05:27:00;94097.91;;;8.46;75.90
59289;BME280;45056;47.602;9.886;2024-01-25T05:29:28;94092.88;;;8.48;75.89
59289;BME280;45056;47.602;9.886;2024-01-25T05:31:56;94097.53;;;8.47;75.80
59289;BME280;45056;47.602;9.886;2024-01-25T05:34:26;94092.88;;;8.48;75.93
59289;BME280;45056;47.602;9.886;2024-01-25T05:36:54;94099.06;;;8.48;75.82
59289;BME280;45056;47.602;9.886;2024-01-25T05:39:22;94093.25;;;8.50;75.71
59289;BME280;45056;47.602;9.886;2024-01-25T05:41:50;94108.78;;;8.49;75.75
59289;BME280;45056;47.602;9.886;2024-01-25T05:44:18;94110.69;;;8.49;75.79
59289;BME280;45056;47.602;9.886;2024-01-25T05:46:46;94118.81;;;8.49;75.75
59289;BME280;45056;47.602;9.886;2024-01-25T05:49:14;94119.22;;;8.47;75.80
59289;BME280;45056;47.602;9.886;2024-01-25T05:51:43;94118.06;;;8.48;75.77
59289;BME280;45056;47.602;9.886;2024-01-25T05:54:11;94109.94;;;8.48;75.73
59289;BME280;45056;47.602;9.886;2024-01-25T05:56:39;94115.34;;;8.48;75.74
59289;BME280;45056;47.602;9.886;2024-01-25T05:59:07;94109.94;;;8.48;75.55
59289;BME280;45056;47.602;9.886;2024-01-25T06:01:35;94129.66;;;8.49;75.55
59289;BME280;45056;47.602;9.886;2024-01-25T06:04:03;94122.69;;;8.48;75.42
59289;BME280;45056;47.602;9.886;2024-01-25T06:06:31;94124.28;;;8.45;75.12
59289;BME280;45056;47.602;9.886;2024-01-25T06:09:00;94129.34;;;8.43;75.37
59289;BME280;45056;47.602;9.886;2024-01-25T06:11:28;94129.34;;;8.43;75.26
59289;BME280;45056;47.602;9.886;2024-01-25T06:13:56;94132.81;;;8.44;75.32
59289;BME280;45056;47.602;9.886;2024-01-25T06:16:24;94124.31;;;8.42;75.44
59289;BME280;45056;47.602;9.886;2024-01-25T06:18:52;94129.34;;;8.43;75.46
59289;BME280;45056;47.602;9.886;2024-01-25T06:21:20;94136.31;;;8.44;75.27
59289;BME280;45056;47.602;9.886;2024-01-25T06:23:48;94133.19;;;8.46;75.18
59289;BME280;45056;47.602;9.886;2024-01-25T06:26:17;94127.38;;;8.44;75.02
59289;BME280;45056;47.602;9.886;2024-01-25T06:28:45;94144.84;;;8.43;74.88
59289;BME280;45056;47.602;9.886;2024-01-25T06:31:14;94145.63;;;8.43;74.88
59289;BME280;45056;47.602;9.886;2024-01-25T06:33:42;94147.16;;;8.44;74.88
59289;BME280;45056;47.602;9.886;2024-01-25T06:36:13;94146.00;;;8.45;75.01
59289;BME280;45056;47.602;9.886;2024-01-25T06:38:41;94156.84;;;8.45;75.02
59289;BME280;45056;47.602;9.886;2024-01-25T06:41:09;94173.09;;;8.45;74.75
59289;BME280;45056;47.602;9.886;2024-01-25T06:43:39;94162.25;;;8.45;74.88
59289;BME280;45056;47.602;9.886;2024-01-25T06:46:07;94173.09;;;8.45;74.79
59289;BME280;45056;47.602;9.886;2024-01-25T06:48:35;94167.69;;;8.45;74.82
59289;BME280;45056;47.602;9.886;2024-01-25T06:51:03;94163.81;;;8.46;74.64
59289;BME280;45056;47.602;9.886;2024-01-25T06:53:31;94177.00;;;8.44;74.49
59289;BME280;45056;47.602;9.886;2024-01-25T06:55:59;94174.28;;;8.44;74.33
59289;BME280;45056;47.602;9.886;2024-01-25T06:58:27;94170.03;;;8.43;74.44
59289;BME280;45056;47.602;9.886;2024-01-25T07:00:57;94169.25;;;8.43;74.38
59289;BME280;45056;47.602;9.886;2024-01-25T07:03:26;94177.00;;;8.44;74.25
59289;BME280;45056;47.602;9.886;2024-01-25T07:05:54;94183.59;;;8.43;74.06
59289;BME280;45056;47.602;9.886;2024-01-25T07:08:22;94180.09;;;8.43;73.93
59289;BME280;45056;47.602;9.886;2024-01-25T07:10:51;94185.13;;;8.44;74.15
59289;BME280;45056;47.602;9.886;2024-01-25T07:13:19;94187.03;;;8.47;74.14
59289;BME280;45056;47.602;9.886;2024-01-25T07:15:48;94192.47;;;8.47;74.11
59289;BME280;45056;47.602;9.886;2024-01-25T07:18:17;94192.88;;;8.49;74.00
59289;BME280;45056;47.602;9.886;2024-01-25T07:20:46;94201.38;;;8.51;73.99
59289;BME280;45056;47.602;9.886;2024-01-25T07:23:14;94197.50;;;8.52;73.83
59289;BME280;45056;47.602;9.886;2024-01-25T07:25:42;94203.69;;;8.53;73.71
59289;BME280;45056;47.602;9.886;2024-01-25T07:28:09;94202.94;;;8.52;73.74
59289;BME280;45056;47.602;9.886;2024-01-25T07:30:37;94200.22;;;8.52;73.68
59289;BME280;45056;47.602;9.886;2024-01-25T07:33:05;94191.31;;;8.48;73.72
59289;BME280;45056;47.602;9.886;2024-01-25T07:35:35;94194.00;;;8.48;73.87
59289;BME280;45056;47.602;9.886;2024-01-25T07:38:04;94201.00;;;8.49;73.78
59289;BME280;45056;47.602;9.886;2024-01-25T07:40:32;94188.19;;;8.50;73.70
59289;BME280;45056;47.602;9.886;2024-01-25T07:43:00;94187.44;;;8.49;73.75
59289;BME280;45056;47.602;9.886;2024-01-25T07:45:28;94194.41;;;8.50;73.74
59289;BME280;45056;47.602;9.886;2024-01-25T07:47:56;94204.09;;;8.51;73.70
59289;BME280;45056;47.602;9.886;2024-01-25T07:50:24;94199.03;;;8.54;73.80
59289;BME280;45056;47.602;9.886;2024-01-25T07:52:54;94201.75;;;8.54;73.76
59289;BME280;45056;47.602;9.886;2024-01-25T07:55:22;94200.59;;;8.55;73.87
59289;BME280;45056;47.602;9.886;2024-01-25T07:57:50;94203.28;;;8.55;73.53
59289;BME280;45056;47.602;9.886;2024-01-25T08:00:18;94211.44;;;8.55;73.66
59289;BME280;45056;47.602;9.886;2024-01-25T08:02:46;94211.44;;;8.55;73.48
59289;BME280;45056;47.602;9.886;2024-01-25T08:05:14;94209.88;;;8.54;73.55
59289;BME280;45056;47.602;9.886;2024-01-25T08:07:44;94201.75;;;8.54;73.64
59289;BME280;45056;47.602;9.886;2024-01-25T08:10:14;94198.25;;;8.53;73.76
59289;BME280;45056;47.602;9.886;2024-01-25T08:12:43;94201.75;;;8.54;73.64
59289;BME280;45056;47.602;9.886;2024-01-25T08:15:15;94195.91;;;8.55;73.56
59289;BME280;45056;47.602;9.886;2024-01-25T08:17:43;94202.13;;;8.56;73.57
59289;BME280;45056;47.602;9.886;2024-01-25T08:20:11;94201.75;;;8.54;73.37
59289;BME280;45056;47.602;9.886;2024-01-25T08:22:40;94202.94;;;8.52;73.42
59289;BME280;45056;47.602;9.886;2024-01-25T08:25:08;94197.50;;;8.52;73.54
59289;BME280;45056;47.602;9.886;2024-01-25T08:27:39;94209.53;;;8.51;73.34
59289;BME280;45056;47.602;9.886;2024-01-25T08:30:08;94206.81;;;8.51;73.33
59289;BME280;45056;47.602;9.886;2024-01-25T08:32:36;94201.38;;;8.51;73.40
59289;BME280;45056;47.602;9.886;2024-01-25T08:35:05;94208.72;;;8.51;73.34
59289;BME280;45056;47.602;9.886;2024-01-25T08:37:34;94206.03;;;8.51;73.29
59289;BME280;45056;47.602;9.886;2024-01-25T08:40:04;94211.06;;;8.52;73.10
59289;BME280;45056;47.602;9.886;2024-01-25T08:42:33;94204.47;;;8.54;73.19
59289;BME280;45056;47.602;9.886;2024-01-25T08:45:03;94216.06;;;8.54;73.24
59289;BME280;45056;47.602;9.886;2024-01-25T08:47:33;94212.19;;;8.55;73.16
59289;BME280;45056;47.602;9.886;2024-01-25T08:50:02;94212.97;;;8.56;73.31
59289;BME280;45056;47.602;9.886;2024-01-25T08:52:32;94220.31;;;8.55;73.12
59289;BME280;45056;47.602;9.886;2024-01-25T08:55:00;94218.03;;;8.54;73.15
59289;BME280;45056;47.602;9.886;2024-01-25T08:57:28;94222.28;;;8.55;73.20
59289;BME280;45056;47.602;9.886;2024-01-25T08:59:56;94237.38;;;8.56;73.29
59289;BME280;45056;47.602;9.886;2024-01-25T09:02:26;94225.38;;;8.57;73.41
59289;BME280;45056;47.602;9.886;2024-01-25T09:04:56;94218.03;;;8.54;73.20
59289;BME280;45056;47.602;9.886;2024-01-25T09:07:24;94221.53;;;8.50;73.31
59289;BME280;45056;47.602;9.886;2024-01-25T09:09:52;94220.00;;;8.49;73.25
59289;BME280;45056;47.602;9.886;2024-01-25T09:12:20;94232.38;;;8.50;73.14
59289;BME280;45056;47.602;9.886;2024-01-25T09:14:48;94226.16;;;8.54;73.04
59289;BME280;45056;47.602;9.886;2024-01-25T09:17:16;94238.16;;;8.56;73.04
59289;BME280;45056;47.602;9.886;2024-01-25T09:19:49;94238.16;;;8.56;73.17
59289;BME280;45056;47.602;9.886;2024-01-25T09:22:18;94235.84;;;8.58;73.20
59289;BME280;45056;47.602;9.886;2024-01-25T09:24:47;94246.28;;;8.60;73.26
59289;BME280;45056;47.602;9.886;2024-01-25T09:27:15;94244.34;;;8.60;73.27
59289;BME280;45056;47.602;9.886;2024-01-25T09:29:43;94236.22;;;8.60;73.15
59289;BME280;45056;47.602;9.886;2024-01-25T09:32:11;94242.41;;;8.61;73.00
59289;BME280;45056;47.602;9.886;2024-01-25T09:34:39;94241.59;;;8.64;73.00
59289;BME280;45056;47.602;9.886;2024-01-25T09:37:09;94250.50;;;8.68;72.99
59289;BME280;45056;47.602;9.886;2024-01-25T09:39:36;94252.78;;;8.73;72.98
59289;BME280;45056;47.602;9.886;2024-01-25T09:42:05;94256.28;;;8.77;72.84
59289;BME280;45056;47.602;9.886;2024-01-25T09:44:35;94255.47;;;8.80;72.76
59289;BME280;45056;47.602;9.886;2024-01-25T09:47:03;94251.59;;;8.82;72.62
59289;BME280;45056;47.602;9.886;2024-01-25T09:49:34;94258.94;;;8.85;72.59
59289;BME280;45056;47.602;9.886;2024-01-25T09:52:03;94248.81;;;8.89;72.66
59289;BME280;45056;47.602;9.886;2024-01-25T09:54:35;94244.91;;;8.93;72.23
59289;BME280;45056;47.602;9.886;2024-01-25T09:57:08;94254.19;;;9.00;71.95
59289;BME280;45056;47.602;9.886;2024-01-25T09:59:41;94256.06;;;9.06;72.25
59289;BME280;45056;47.602;9.886;2024-01-25T10:02:10;94265.72;;;9.11;71.87
59289;BME280;45056;47.602;9.886;2024-01-25T10:04:39;94264.53;;;9.12;71.37
59289;BME280;45056;47.602;9.886;2024-01-25T10:07:07;94263.78;;;9.12;71.32
59289;BME280;45056;47.602;9.886;2024-01-25T10:09:41;94271.94;;;9.12;71.19
59289;BME280;45056;47.602;9.886;2024-01-25T10:12:10;94269.22;;;9.12;71.04
59289;BME280;45056;47.602;9.886;2024-01-25T10:14:38;94269.22;;;9.12;71.30
59289;BME280;45056;47.602;9.886;2024-01-25T10:17:06;94254.84;;;9.11;71.28
59289;BME280;45056;47.602;9.886;2024-01-25T10:19:34;94252.94;;;9.12;71.19
59289;BME280;45056;47.602;9.886;2024-01-25T10:22:06;94240.91;;;9.13;71.18
59289;BME280;45056;47.602;9.886;2024-01-25T10:24:35;94240.53;;;9.11;70.94
59289;BME280;45056;47.602;9.886;2024-01-25T10:27:06;94242.09;;;9.08;70.82
59289;BME280;45056;47.602;9.886;2024-01-25T10:29:35;94246.34;;;9.09;71.11
59289;BME280;45056;47.602;9.886;2024-01-25T10:32:04;94249.84;;;9.09;71.09
59289;BME280;45056;47.602;9.886;2024-01-25T10:34:35;94246.75;;;9.07;71.20
59289;BME280;45056;47.602;9.886;2024-01-25T10:37:05;94244.41;;;9.09;71.49
59289;BME280;45056;47.602;9.886;2024-01-25T10:39:34;94236.28;;;9.06;71.71
59289;BME280;45056;47.602;9.886;2024-01-25T10:42:03;94229.69;;;9.03;71.57
59289;BME280;45056;47.602;9.886;2024-01-25T10:44:32;94228.56;;;9.01;71.67
59289;BME280;45056;47.602;9.886;2024-01-25T10:47:01;94215.75;;;9.01;71.98
59289;BME280;45056;47.602;9.886;2024-01-25T10:49:31;94215.00;;;9.01;72.09
59289;BME280;45056;47.602;9.886;2024-01-25T10:52:00;94219.63;;;9.00;72.03
59289;BME280;45056;47.602;9.886;2024-01-25T10:54:29;94221.22;;;8.98;72.10
59289;BME280;45056;47.602;9.886;2024-01-25T10:56:58;94223.19;;;8.93;72.10
59289;BME280;45056;47.602;9.886;2024-01-25T10:59:28;94215.88;;;8.90;72.21
59289;BME280;45056;47.602;9.886;2024-01-25T11:01:56;94212.34;;;8.90;72.08
59289;BME280;45056;47.602;9.886;2024-01-25T11:04:24;94218.97;;;8.89;72.34
59289;BME280;45056;47.602;9.886;2024-01-25T11:06:52;94214.31;;;8.89;72.47
59289;BME280;45056;47.602;9.886;2024-01-25T11:09:21;94208.09;;;8.89;72.44
59289;BME280;45056;47.602;9.886;2024-01-25T11:11:50;94217.03;;;8.89;72.47
59289;BME280;45056;47.602;9.886;2024-01-25T11:14:21;94206.94;;;8.90;72.61
59289;BME280;45056;47.602;9.886;2024-01-25T11:16:54;94204.22;;;8.90;72.56
59289;BME280;45056;47.602;9.886;2024-01-25T11:19:22;94199.59;;;8.87;72.33
59289;BME280;45056;47.602;9.886;2024-01-25T11:21:52;94193.00;;;8.84;72.45
59289;BME280;45056;47.602;9.886;2024-01-25T11:24:22;94187.19;;;8.86;72.78
59289;BME280;45056;47.602;9.886;2024-01-25T11:26:54;94176.72;;;8.88;72.44
59289;BME280;45056;47.602;9.886;2024-01-25T11:29:22;94180.97;;;8.89;72.53
59289;BME280;45056;47.602;9.886;2024-01-25T11:31:52;94184.03;;;8.91;72.61
59289;BME280;45056;47.602;9.886;2024-01-25T11:34:22;94184.78;;;8.95;72.69
59289;BME280;45056;47.602;9.886;2024-01-25T11:36:51;94179.34;;;8.95;72.26
59289;BME280;45056;47.602;9.886;2024-01-25T11:39:19;94186.75;;;8.94;72.40
59289;BME280;45056;47.602;9.886;2024-01-25T11:41:47;94178.97;;;8.97;72.45
59289;BME280;45056;47.602;9.886;2024-01-25T11:44:19;94177.00;;;8.97;72.43
59289;BME280;45056;47.602;9.886;2024-01-25T11:46:50;94175.84;;;8.98;72.58
59289;BME280;45056;47.602;9.886;2024-01-25T11:49:20;94185.91;;;9.01;72.59
59289;BME280;45056;47.602;9.886;2024-01-25T11:51:50;94174.66;;;9.03;72.82
59289;BME280;45056;47.602;9.886;2024-01-25T11:54:18;94172.66;;;9.07;72.86
59289;BME280;45056;47.602;9.886;2024-01-25T11:56:47;94161.41;;;9.08;72.84
59289;BME280;45056;47.602;9.886;2024-01-25T11:59:15;94154.00;;;9.13;72.70
59289;BME280;45056;47.602;9.886;2024-01-25T12:01:44;94151.28;;;9.13;72.49
59289;BME280;45056;47.602;9.886;2024-01-25T12:04:12;94148.16;;;9.14;72.36
59289;BME280;45056;47.602;9.886;2024-01-25T12:06:43;94144.63;;;9.17;72.65
59289;BME280;45056;47.602;9.886;2024-01-25T12:09:11;94144.63;;;9.21;72.36
59289;BME280;45056;47.602;9.886;2024-01-25T12:11:40;94143.06;;;9.23;72.48
59289;BME280;45056;47.602;9.886;2024-01-25T12:14:09;94149.25;;;9.24;72.51
59289;BME280;45056;47.602;9.886;2024-01-25T12:16:38;94142.63;;;9.25;72.51
59289;BME280;45056;47.602;9.886;2024-01-25T12:19:07;94134.47;;;9.25;72.44
59289;BME280;45056;47.602;9.886;2024-01-25T12:21:35;94136.44;;;9.24;72.43
59289;BME280;45056;47.602;9.886;2024-01-25T12:24:07;94132.94;;;9.24;72.39
59289;BME280;45056;47.602;9.886;2024-01-25T12:26:36;94129.06;;;9.25;72.61
59289;BME280;45056;47.602;9.886;2024-01-25T12:29:04;94127.88;;;9.26;72.79
59289;BME280;45056;47.602;9.886;2024-01-25T12:31:34;94120.50;;;9.27;72.51
59289;BME280;45056;47.602;9.886;2024-01-25T12:34:02;94126.69;;;9.27;72.59
59289;BME280;45056;47.602;9.886;2024-01-25T12:36:31;94112.72;;;9.29;72.77
59289;BME280;45056;47.602;9.886;2024-01-25T12:39:00;94116.22;;;9.29;72.83
59289;BME280;45056;47.602;9.886;2024-01-25T12:41:30;94115.03;;;9.30;72.74
59289;BME280;45056;47.602;9.886;2024-01-25T12:43:58;94121.63;;;9.29;72.59
59289;BME280;45056;47.602;9.886;2024-01-25T12:46:27;94111.19;;;9.28;72.69
59289;BME280;45056;47.602;9.886;2024-01-25T12:48:55;94112.72;;;9.29;72.25
59289;BME280;45056;47.602;9.886;2024-01-25T12:51:25;94113.91;;;9.28;72.58
59289;BME280;45056;47.602;9.886;2024-01-25T12:53:53;94113.91;;;9.28;72.44
59289;BME280;45056;47.602;9.886;2024-01-25T12:56:21;94106.94;;;9.27;72.55
59289;BME280;45056;47.602;9.886;2024-01-25T12:58:51;94110.81;;;9.26;72.62
59289;BME280;45056;47.602;9.886;2024-01-25T13:01:19;94108.88;;;9.26;72.62
59289;BME280;45056;47.602;9.886;2024-01-25T13:03:47;94106.16;;;9.26;72.78
59289;BME280;45056;47.602;9.886;2024-01-25T13:06:15;94104.63;;;9.25;72.63
59289;BME280;45056;47.602;9.886;2024-01-25T13:08:43;94103.44;;;9.26;72.79
59289;BME280;45056;47.602;9.886;2024-01-25T13:11:11;94098.00;;;9.26;72.45
59289;BME280;45056;47.602;9.886;2024-01-25T13:13:40;94105.41;;;9.26;72.35
59289;BME280;45056;47.602;9.886;2024-01-25T13:16:09;94107.75;;;9.23;72.24